Time;durP1;ratioP1;P1;durP2;ratioP2;P2;SDS_P1;SDS_P2;PMS_P1;PMS_P2;Temp;Humidity;BMP_temperature;BMP_pressure;BME280_temperature;BME280_humidity;BME280_pressure;Samples;Min_cycle;Max_cycle;Signal;HPM_P1;HPM_P2
2023/10/19 00:00:48;;;;;;;15.57;14.37;;;;;;;7.21;100.00;92868.03;5049271;28;20213;-82
2023/10/19 00:03:15;;;;;;;15.60;14.30;;;;;;;7.08;100.00;92854.72;5049360;28;20230;-83
2023/10/19 00:05:45;;;;;;;15.53;14.23;;;;;;;6.96;100.00;92861.91;5049885;28;20190;-84
2023/10/19 00:10:42;;;;;;;16.57;15.07;;;;;;;7.11;100.00;92849.81;5041621;28;20201;-82
2023/10/19 00:13:11;;;;;;;16.33;14.93;;;;;;;6.97;100.00;92846.09;5041739;28;20233;-82
2023/10/19 00:15:47;;;;;;;16.40;14.97;;;;;;;7.08;100.00;92841.75;5039890;28;20202;-82
2023/10/19 00:21:27;;;;;;;16.23;15.03;;;;;;;7.16;100.00;92843.88;5041595;28;20279;-82
2023/10/19 00:23:33;;;;;;;16.60;15.10;;;;;;;7.30;100.00;92840.53;5031846;28;20226;-84
2023/10/19 00:25:59;;;;;;;17.00;15.60;;;;;;;7.38;100.00;92832.28;5049223;28;20177;-81
2023/10/19 00:28:27;;;;;;;16.30;14.90;;;;;;;7.46;100.00;92834.41;5048964;28;20218;-82
2023/10/19 00:30:59;;;;;;;16.67;15.07;;;;;;;7.50;100.00;92830.25;5049186;28;20171;-83
2023/10/19 00:33:28;;;;;;;16.17;14.83;;;;;;;7.51;100.00;92829.22;5040024;28;20225;-83
2023/10/19 00:35:58;;;;;;;17.30;15.90;;;;;;;7.56;100.00;92813.66;5047551;28;20210;-83
2023/10/19 00:40:53;;;;;;;16.10;14.80;;;;;;;7.71;100.00;92825.91;5041764;28;20190;-82
2023/10/19 00:43:33;;;;;;;16.40;15.10;;;;;;;7.54;100.00;92814.94;5048954;28;20229;-83
2023/10/19 00:46:06;;;;;;;15.27;14.03;;;;;;;7.49;100.00;92822.72;5039102;28;20217;-83
2023/10/19 00:48:34;;;;;;;16.50;14.97;;;;;;;7.43;100.00;92813.34;5044191;28;20214;-80
2023/10/19 00:51:08;;;;;;;16.57;15.17;;;;;;;7.60;100.00;92821.72;5043538;28;20239;-81
2023/10/19 00:53:36;;;;;;;18.33;17.03;;;;;;;7.45;100.00;92795.69;5048511;28;20297;-83
2023/10/19 00:56:05;;;;;;;16.83;15.43;;;;;;;7.51;100.00;92821.44;5043902;28;20224;-83
2023/10/19 00:58:35;;;;;;;16.03;14.63;;;;;;;7.52;100.00;92806.63;5041663;28;20234;-82
2023/10/19 01:01:07;;;;;;;16.40;15.10;;;;;;;7.70;100.00;92819.94;5044924;28;20203;-83
2023/10/19 01:03:36;;;;;;;16.27;14.87;;;;;;;7.71;100.00;92821.50;5047697;28;20252;-83
2023/10/19 01:06:13;;;;;;;15.80;14.50;;;;;;;7.73;100.00;92811.66;5049239;28;20242;-83
2023/10/19 01:08:41;;;;;;;16.27;14.97;;;;;;;7.77;100.00;92823.06;5045158;28;20297;-83
2023/10/19 01:11:11;;;;;;;17.17;15.70;;;;;;;7.75;100.00;92812.16;5047714;28;20186;-83
2023/10/19 01:13:44;;;;;;;16.33;15.03;;;;;;;7.71;100.00;92798.13;5048499;28;20222;-83
2023/10/19 01:16:23;;;;;;;15.90;14.70;;;;;;;7.68;100.00;92788.22;5044781;28;20233;-83
2023/10/19 01:18:54;;;;;;;17.50;15.80;;;;;;;7.90;100.00;92820.00;5046094;28;20229;-83
2023/10/19 01:21:37;;;;;;;16.50;15.23;;;;;;;7.67;100.00;92814.47;5048650;28;20182;-83
2023/10/19 01:24:07;;;;;;;16.70;15.03;;;;;;;8.00;100.00;92827.81;5048011;28;20297;-79
2023/10/19 01:26:37;;;;;;;17.30;15.77;;;;;;;8.17;100.00;92828.34;5041465;28;20201;-83
2023/10/19 01:29:09;;;;;;;16.83;15.43;;;;;;;8.24;100.00;92829.94;5045050;28;20236;-82
2023/10/19 01:31:38;;;;;;;16.77;15.47;;;;;;;8.28;100.00;92812.81;5045527;28;20186;-84
2023/10/19 01:34:09;;;;;;;16.67;15.33;;;;;;;8.42;100.00;92827.63;5060906;28;20291;-82
2023/10/19 01:36:42;;;;;;;17.57;15.87;;;;;;;8.48;100.00;92818.00;5041221;28;20920;-83
2023/10/19 01:39:11;;;;;;;16.07;14.83;;;;;;;8.33;100.00;92818.78;5047884;28;20234;-82
2023/10/19 01:41:37;;;;;;;16.23;15.00;;;;;;;8.25;100.00;92806.28;5045160;28;20218;-83
2023/10/19 01:44:06;;;;;;;15.60;14.40;;;;;;;8.52;100.00;92827.63;5047985;28;20214;-83
2023/10/19 01:46:34;;;;;;;16.17;14.93;;;;;;;8.48;100.00;92824.00;5048125;28;20218;-83
2023/10/19 01:49:02;;;;;;;15.80;14.37;;;;;;;8.44;100.00;92825.53;5041899;28;20219;-84
2023/10/19 01:51:29;;;;;;;16.10;14.80;;;;;;;8.47;100.00;92830.22;5050879;28;20200;-82
2023/10/19 01:53:56;;;;;;;16.30;14.83;;;;;;;8.51;100.00;92825.28;5051938;28;20947;-83
2023/10/19 01:56:22;;;;;;;16.50;15.10;;;;;;;8.32;100.00;92827.63;5052203;28;20297;-83
2023/10/19 01:58:48;;;;;;;16.30;15.03;;;;;;;8.33;100.00;92818.78;5044890;28;20273;-83
2023/10/19 02:03:50;;;;;;;15.83;14.53;;;;;;;8.37;100.00;92811.25;5051245;28;20222;-84
2023/10/19 02:06:17;;;;;;;16.20;14.80;;;;;;;8.22;100.00;92800.81;5040741;28;20179;-82
2023/10/19 02:08:51;;;;;;;15.80;14.47;;;;;;;8.23;100.00;92797.97;5043653;28;20241;-84
2023/10/19 02:11:21;;;;;;;15.70;14.50;;;;;;;8.31;100.00;92820.09;5044998;28;20194;-83
2023/10/19 02:13:49;;;;;;;16.13;14.67;;;;;;;8.03;100.00;92764.91;5032691;28;20238;-82
2023/10/19 02:16:16;;;;;;;16.83;15.43;;;;;;;8.28;100.00;92816.16;5038106;28;20206;-83
2023/10/19 02:18:44;;;;;;;15.37;13.93;;;;;;;8.28;100.00;92820.59;5045772;28;20248;-80
2023/10/19 02:21:12;;;;;;;17.10;15.70;;;;;;;8.29;100.00;92819.56;5041177;28;20178;-83
2023/10/19 02:23:44;;;;;;;17.60;16.20;;;;;;;8.31;100.00;92825.28;5049626;28;20217;-83
2023/10/19 02:26:12;;;;;;;17.50;15.87;;;;;;;8.39;100.00;92827.38;5051395;28;20178;-83
2023/10/19 02:28:38;;;;;;;16.83;15.33;;;;;;;8.31;100.00;92826.09;5034970;28;20230;-80
2023/10/19 02:31:25;;;;;;;17.67;15.97;;;;;;;8.14;100.00;92826.28;5043571;28;20186;-82
2023/10/19 02:33:59;;;;;;;17.20;15.67;;;;;;;7.93;100.00;92803.88;5048835;28;20206;-83
2023/10/19 02:36:29;;;;;;;18.93;16.80;;;;;;;8.12;100.00;92817.94;5040118;28;20234;-83
2023/10/19 02:39:07;;;;;;;16.97;15.47;;;;;;;8.21;100.00;92815.63;5037973;28;20313;-79
2023/10/19 02:41:35;;;;;;;19.00;17.17;;;;;;;8.25;100.00;92826.31;5039249;28;20177;-83
2023/10/19 02:46:29;;;;;;;20.07;16.47;;;;;;;8.12;100.00;92817.94;5040256;28;20220;-82
2023/10/19 02:48:56;;;;;;;19.23;17.20;;;;;;;8.13;100.00;92819.50;5049250;28;20230;-82
2023/10/19 02:51:22;;;;;;;23.37;19.00;;;;;;;8.18;100.00;92819.53;5039225;28;20174;-82
2023/10/19 02:53:47;;;;;;;20.80;18.17;;;;;;;8.06;100.00;92824.16;5050538;28;20245;-83
2023/10/19 02:56:16;;;;;;;22.40;18.50;;;;;;;8.01;100.00;92813.00;5050732;28;20222;-83
2023/10/19 02:58:42;;;;;;;20.03;18.03;;;;;;;7.81;100.00;92811.13;5046120;28;20229;-82
2023/10/19 03:01:17;;;;;;;19.87;17.97;;;;;;;7.91;100.00;92816.34;5037597;28;20186;-83
2023/10/19 03:03:43;;;;;;;17.67;15.87;;;;;;;7.76;100.00;92810.34;5042289;28;20225;-83
2023/10/19 03:06:09;;;;;;;17.13;15.50;;;;;;;7.76;100.00;92813.72;5051173;28;20184;-81
2023/10/19 03:08:35;;;;;;;17.30;15.67;;;;;;;7.45;100.00;92795.69;5049808;28;20272;-83
2023/10/19 03:11:04;;;;;;;18.53;16.20;;;;;;;7.39;100.00;92802.66;5050633;28;20183;-83
2023/10/19 03:13:32;;;;;;;17.97;16.00;;;;;;;7.37;100.00;92809.16;5049977;28;20220;-82
2023/10/19 03:15:58;;;;;;;17.20;15.60;;;;;;;7.29;100.00;92797.44;5044353;28;20204;-83
2023/10/19 03:18:25;;;;;;;19.00;17.03;;;;;;;7.35;100.00;92806.03;5038709;28;20291;-83
2023/10/19 03:20:51;;;;;;;16.73;15.13;;;;;;;7.26;100.00;92804.94;5048913;28;20194;-83
2023/10/19 03:23:17;;;;;;;18.13;16.20;;;;;;;7.09;100.00;92793.97;5045886;28;20240;-80
2023/10/19 03:28:26;;;;;;;23.10;17.87;;;;;;;7.07;100.00;92807.19;5043893;28;20222;-79
2023/10/19 03:30:51;;;;;;;18.83;17.07;;;;;;;6.92;100.00;92794.16;5049449;28;20284;-83
2023/10/19 03:33:18;;;;;;;18.47;16.77;;;;;;;7.04;100.00;92805.13;5048794;28;20210;-83
2023/10/19 03:35:43;;;;;;;22.30;16.57;;;;;;;7.02;100.00;92804.56;5042484;28;20208;-82
2023/10/19 03:38:18;;;;;;;19.90;16.90;;;;;;;6.95;100.00;92798.06;5045838;28;20222;-83
2023/10/19 03:40:51;;;;;;;20.87;14.67;;;;;;;6.93;100.00;92803.50;5049882;28;20182;-80
2023/10/19 03:43:26;;;;;;;18.13;16.30;;;;;;;6.86;100.00;92792.56;5046819;28;20220;-86
2023/10/19 03:45:55;;;;;;;17.07;15.47;;;;;;;6.81;100.00;92796.94;5058254;28;20232;-86
2023/10/19 03:48:26;;;;;;;17.53;15.97;;;;;;;6.79;100.00;92799.00;5044592;28;20215;-85
2023/10/19 03:50:53;;;;;;;21.43;15.53;;;;;;;6.46;100.00;92750.78;5047871;28;20197;-85
2023/10/19 03:53:21;;;;;;;17.17;15.77;;;;;;;6.71;100.00;92789.88;5048015;28;20276;-85
2023/10/19 03:55:47;;;;;;;17.53;15.83;;;;;;;6.64;100.00;92778.94;5050086;28;20210;-85
2023/10/19 03:58:12;;;;;;;17.50;15.23;;;;;;;6.63;100.00;92782.53;5049361;28;20222;-84
2023/10/19 04:00:38;;;;;;;16.20;14.60;;;;;;;6.62;100.00;92778.41;5050152;28;20193;-85
2023/10/19 04:03:04;;;;;;;19.53;15.30;;;;;;;6.44;100.00;92774.38;5049397;28;20227;-82
2023/10/19 04:05:31;;;;;;;15.37;14.03;;;;;;;6.61;100.00;92783.84;5050312;28;20209;-81
2023/10/19 04:08:00;;;;;;;16.70;15.00;;;;;;;6.66;100.00;92784.66;5033776;28;20218;-83
2023/10/19 04:13:00;;;;;;;15.37;13.97;;;;;;;6.64;100.00;92789.31;5049593;28;20224;-83
2023/10/19 04:15:26;;;;;;;17.03;15.20;;;;;;;6.60;100.00;92787.47;5048263;28;20270;-82
2023/10/19 04:17:58;;;;;;;15.77;14.47;;;;;;;6.54;100.00;92790.03;5049300;28;20201;-83
2023/10/19 04:20:35;;;;;;;16.93;14.50;;;;;;;6.59;100.00;92781.50;5045070;28;20171;-82
2023/10/19 04:23:10;;;;;;;16.43;14.77;;;;;;;6.64;100.00;92781.53;5035243;28;20221;-83
2023/10/19 04:25:35;;;;;;;15.23;13.93;;;;;;;6.48;100.00;92775.47;5041058;28;20220;-83
2023/10/19 04:28:01;;;;;;;14.67;13.33;;;;;;;6.39;100.00;92766.59;5048922;28;20222;-83
2023/10/19 04:30:26;;;;;;;16.20;14.73;;;;;;;6.53;100.00;92777.31;5047684;28;20185;-79
2023/10/19 04:32:52;;;;;;;15.40;13.97;;;;;;;6.49;100.00;92776.22;5046348;28;20198;-83
2023/10/19 04:35:21;;;;;;;16.17;14.77;;;;;;;6.57;100.00;92773.97;5049615;28;20216;-83
2023/10/19 04:37:48;;;;;;;15.13;13.93;;;;;;;6.42;100.00;92775.69;5050606;28;20250;-79
2023/10/19 04:40:13;;;;;;;16.03;14.40;;;;;;;6.40;100.00;92765.56;5037682;28;20205;-84
2023/10/19 04:42:39;;;;;;;14.73;13.27;;;;;;;6.21;100.00;92761.00;5032902;28;20171;-79
2023/10/19 04:45:05;;;;;;;15.07;13.87;;;;;;;6.31;100.00;92779.22;5045264;28;20240;-83
2023/10/19 04:47:35;;;;;;;15.57;14.37;;;;;;;6.27;100.00;92767.78;5049463;28;20193;-84
2023/10/19 04:50:00;;;;;;;16.27;14.67;;;;;;;6.25;100.00;92775.03;5048984;28;20221;-83
2023/10/19 04:52:25;;;;;;;15.60;14.23;;;;;;;6.29;100.00;92768.31;5043498;28;20268;-84
2023/10/19 04:54:51;;;;;;;15.10;13.90;;;;;;;6.38;100.00;92775.38;5033011;28;20228;-84
2023/10/19 04:57:16;;;;;;;16.73;15.23;;;;;;;6.36;100.00;92772.28;5048165;28;20208;-84
2023/10/19 04:59:45;;;;;;;17.27;15.53;;;;;;;6.29;100.00;92770.91;5047057;28;20218;-84
2023/10/19 05:02:10;;;;;;;16.00;14.23;;;;;;;6.36;100.00;92774.06;5048349;28;20190;-83
2023/10/19 05:04:36;;;;;;;16.23;14.60;;;;;;;6.21;100.00;92768.78;5046256;28;20225;-84
2023/10/19 05:07:03;;;;;;;15.70;14.27;;;;;;;6.35;100.00;92762.16;5049401;28;20186;-83
2023/10/19 05:09:29;;;;;;;17.27;15.47;;;;;;;6.34;100.00;92755.38;5035418;28;20241;-83
2023/10/19 05:11:55;;;;;;;23.40;17.60;;;;;;;6.31;100.00;92763.66;5038232;28;20182;-81
2023/10/19 05:14:20;;;;;;;21.93;15.93;;;;;;;6.06;100.00;92719.41;5040681;28;20233;-84
2023/10/19 05:16:46;;;;;;;16.93;15.33;;;;;;;6.39;100.00;92760.63;5048940;28;20196;-83
2023/10/19 05:19:11;;;;;;;16.30;14.80;;;;;;;6.60;100.00;92770.09;5047583;28;20246;-83
2023/10/19 05:21:36;;;;;;;20.50;14.87;;;;;;;6.60;100.00;92766.72;5048935;28;20193;-82
2023/10/19 05:24:02;;;;;;;19.07;15.13;;;;;;;6.38;100.00;92762.41;5051528;28;20248;-83
2023/10/19 05:26:27;;;;;;;18.80;15.90;;;;;;;6.44;100.00;92774.38;5052166;28;20190;-85
2023/10/19 05:28:54;;;;;;;15.83;13.90;;;;;;;6.50;100.00;92767.44;5051725;28;20249;-84
2023/10/19 05:31:19;;;;;;;17.47;15.77;;;;;;;6.57;100.00;92760.22;5051787;28;20303;-83
2023/10/19 05:33:48;;;;;;;19.93;16.40;;;;;;;6.61;100.00;92773.47;5057099;28;20214;-84
2023/10/19 05:36:14;;;;;;;18.53;16.40;;;;;;;6.75;100.00;92772.78;5046972;28;20216;-84
2023/10/19 05:38:40;;;;;;;18.73;16.93;;;;;;;6.94;100.00;92771.31;5051968;28;20222;-84
2023/10/19 05:41:05;;;;;;;19.20;17.33;;;;;;;7.16;100.00;92781.56;5049232;28;20275;-83
2023/10/19 05:43:31;;;;;;;22.13;18.50;;;;;;;7.21;100.00;92790.13;5051833;28;20225;-83
2023/10/19 05:45:56;;;;;;;20.47;18.17;;;;;;;7.29;100.00;92781.88;5051512;28;20225;-83
2023/10/19 05:48:23;;;;;;;20.67;18.47;;;;;;;7.49;100.00;92797.53;5045590;28;20222;-83
2023/10/19 05:50:49;;;;;;;21.63;19.37;;;;;;;7.64;100.00;92794.97;5051306;28;20171;-83
2023/10/19 05:53:18;;;;;;;21.07;18.60;;;;;;;7.76;100.00;92784.34;5051354;28;20218;-80
2023/10/19 05:55:44;;;;;;;22.33;18.90;;;;;;;7.66;100.00;92792.09;5052010;28;20213;-84
2023/10/19 05:58:10;;;;;;;22.30;19.13;;;;;;;7.88;100.00;92790.88;5049692;28;20283;-84
2023/10/19 06:00:35;;;;;;;22.83;19.73;;;;;;;7.84;100.00;92794.25;5050288;28;20210;-85
2023/10/19 06:03:01;;;;;;;23.93;21.40;;;;;;;8.23;100.00;92786.78;5045682;28;20257;-80
2023/10/19 06:05:26;;;;;;;24.47;20.57;;;;;;;8.64;100.00;92804.72;5044350;28;20689;-84
2023/10/19 06:07:52;;;;;;;23.30;20.80;;;;;;;8.75;100.00;92792.47;5051288;28;20194;-84
2023/10/19 06:10:20;;;;;;;23.47;21.10;;;;;;;8.96;100.00;92792.22;5050848;28;20265;-84
2023/10/19 06:12:49;;;;;;;26.37;20.17;;;;;;;9.02;100.00;92796.34;5051892;28;20205;-82
2023/10/19 06:15:16;;;;;;;24.17;21.70;;;;;;;8.79;100.00;92803.94;5050194;28;20210;-84
2023/10/19 06:17:43;;;;;;;24.07;19.53;;;;;;;9.21;100.00;92804.38;5050028;28;20209;-83
2023/10/19 06:20:29;;;;;;;23.77;21.47;;;;;;;9.55;100.00;92805.31;5052072;28;20186;-84
2023/10/19 06:22:56;;;;;;;26.67;21.57;;;;;;;9.03;100.00;92777.06;5051418;28;20242;-83
2023/10/19 06:25:24;;;;;;;26.13;21.87;;;;;;;9.41;100.00;92806.91;5050827;28;20205;-84
2023/10/19 06:27:50;;;;;;;25.90;20.37;;;;;;;9.06;100.00;92799.19;5051494;28;20249;-84
2023/10/19 06:30:18;;;;;;;28.57;21.80;;;;;;;8.97;100.00;92801.56;5051967;28;20197;-83
2023/10/19 06:32:55;;;;;;;29.47;23.37;;;;;;;9.18;100.00;92804.91;5050800;28;20193;-79
2023/10/19 06:35:21;;;;;;;31.77;23.27;;;;;;;8.94;100.00;92801.31;5048821;28;20205;-85
2023/10/19 06:37:47;;;;;;;34.17;25.73;;;;;;;8.80;100.00;92795.88;5049838;28;20185;-82
2023/10/19 06:40:17;;;;;;;33.40;25.83;;;;;;;8.89;100.00;92806.50;5051117;28;20185;-84
2023/10/19 06:42:46;;;;;;;32.97;24.70;;;;;;;9.21;100.00;92802.53;5049165;28;20193;-84
2023/10/19 06:45:16;;;;;;;47.47;31.83;;;;;;;9.32;100.00;92811.13;5051231;28;20224;-83
2023/10/19 06:47:47;;;;;;;77.53;63.00;;;;;;;9.47;100.00;92811.06;5043930;28;20190;-83
2023/10/19 06:50:17;;;;;;;45.20;29.27;;;;;;;9.47;100.00;92808.47;5051321;28;20197;-84
2023/10/19 06:52:44;;;;;;;40.43;25.60;;;;;;;9.41;100.00;92804.31;5050135;28;20186;-84
2023/10/19 06:55:13;;;;;;;35.80;26.33;;;;;;;9.00;100.00;92797.66;5050843;28;20226;-84
2023/10/19 06:57:45;;;;;;;36.10;29.63;;;;;;;9.65;100.00;92806.03;5040698;28;20190;-77
2023/10/19 07:00:30;;;;;;;33.63;26.60;;;;;;;9.41;100.00;92799.09;5040175;28;20903;-86
2023/10/19 07:03:00;;;;;;;38.30;26.97;;;;;;;10.21;100.00;92793.50;5045629;28;20290;-84
2023/10/19 07:05:29;;;;;;;31.03;25.00;;;;;;;10.49;99.09;92782.31;5046194;28;20182;-86
2023/10/19 07:07:56;;;;;;;26.57;23.13;;;;;;;10.85;97.41;92788.03;5037604;28;20193;-85
2023/10/19 07:10:22;;;;;;;27.27;22.60;;;;;;;10.83;96.42;92784.94;5043814;28;20200;-84
2023/10/19 07:12:51;;;;;;;20.20;18.20;;;;;;;10.48;95.27;92799.06;5042242;28;20209;-83
2023/10/19 07:15:22;;;;;;;20.80;18.87;;;;;;;10.44;96.39;92798.06;5050656;28;20261;-85
2023/10/19 07:17:47;;;;;;;19.63;17.63;;;;;;;10.51;96.89;92801.13;5049758;28;20182;-85
2023/10/19 07:20:32;;;;;;;20.87;18.87;;;;;;;10.58;96.16;92809.44;5038261;28;20183;-85
2023/10/19 07:25:43;;;;;;;22.77;20.33;;;;;;;10.27;98.23;92808.09;5048873;28;20209;-85
2023/10/19 07:28:15;;;;;;;18.73;16.63;;;;;;;10.25;97.16;92802.34;5049873;28;20225;-84
2023/10/19 07:30:41;;;;;;;22.23;20.13;;;;;;;10.85;94.67;92816.75;5050248;28;20209;-85
2023/10/19 07:33:16;;;;;;;18.90;17.20;;;;;;;10.80;94.13;92801.91;5038734;28;20230;-85
2023/10/19 07:35:43;;;;;;;18.43;16.63;;;;;;;10.82;94.30;92802.41;5047345;28;20201;-86
2023/10/19 07:38:09;;;;;;;20.43;18.50;;;;;;;11.19;94.56;92807.81;5046000;28;20227;-84
2023/10/19 07:40:35;;;;;;;19.17;17.20;;;;;;;11.39;92.06;92767.63;5042904;28;20184;-85
2023/10/19 07:43:01;;;;;;;25.10;17.40;;;;;;;11.66;89.84;92814.91;5044573;28;20289;-85
2023/10/19 07:45:27;;;;;;;16.13;14.63;;;;;;;11.49;90.16;92800.72;5050012;28;20222;-85
2023/10/19 07:47:52;;;;;;;18.70;17.00;;;;;;;11.41;90.06;92807.31;5048713;28;20195;-88
2023/10/19 07:50:17;;;;;;;19.43;17.53;;;;;;;10.62;94.92;92820.88;5050212;28;20209;-84
2023/10/19 07:52:48;;;;;;;17.97;16.13;;;;;;;10.46;95.86;92822.03;5048410;28;20222;-85
2023/10/19 07:55:15;;;;;;;18.83;17.10;;;;;;;11.12;92.66;92810.00;5041858;28;20215;-85
2023/10/19 07:57:41;;;;;;;18.10;16.40;;;;;;;11.46;91.09;92812.50;5049405;28;20175;-83
2023/10/19 08:00:08;;;;;;;18.07;15.97;;;;;;;11.11;92.87;92808.41;5049780;28;20224;-86
2023/10/19 08:02:37;;;;;;;17.47;16.00;;;;;;;11.03;95.26;92816.09;5048040;28;20215;-84
2023/10/19 08:05:06;;;;;;;16.07;14.67;;;;;;;10.81;95.17;92813.94;5038630;28;20275;-85
2023/10/19 08:07:32;;;;;;;19.53;17.53;;;;;;;10.35;96.89;92817.94;5050172;28;20237;-84
2023/10/19 08:09:58;;;;;;;20.07;16.03;;;;;;;10.17;97.20;92828.22;5048694;28;20218;-84
2023/10/19 08:12:26;;;;;;;19.10;16.80;;;;;;;10.09;97.69;92821.75;5047394;28;20182;-84
2023/10/19 08:14:55;;;;;;;22.43;20.10;;;;;;;10.36;97.32;92822.13;5045842;28;20225;-84
2023/10/19 08:17:21;;;;;;;19.73;17.63;;;;;;;10.57;96.53;92823.50;5049725;28;20274;-82
2023/10/19 08:19:47;;;;;;;17.63;16.03;;;;;;;10.77;93.66;92814.75;5049406;28;20328;-83
2023/10/19 08:22:14;;;;;;;21.00;18.90;;;;;;;10.47;96.10;92807.16;5045353;28;20202;-83
2023/10/19 08:24:43;;;;;;;28.73;25.33;;;;;;;10.78;95.37;92814.47;5049150;28;20338;-84
2023/10/19 08:27:10;;;;;;;24.23;21.63;;;;;;;10.58;95.79;92821.69;5046907;28;20198;-84
2023/10/19 08:29:36;;;;;;;18.57;16.17;;;;;;;10.76;94.18;92816.59;5041874;28;20218;-84
2023/10/19 08:32:02;;;;;;;17.90;16.13;;;;;;;10.76;93.72;92808.75;5045347;28;20200;-84
2023/10/19 08:34:29;;;;;;;19.40;17.27;;;;;;;10.84;93.35;92820.44;5045866;28;20933;-84
2023/10/19 08:36:55;;;;;;;20.47;17.37;;;;;;;10.60;94.73;92830.03;5038005;28;20186;-84
2023/10/19 08:39:21;;;;;;;18.73;16.83;;;;;;;10.64;94.62;92808.34;5039110;28;20263;-83
2023/10/19 08:41:49;;;;;;;18.00;16.30;;;;;;;10.40;95.69;92824.94;5038646;28;20242;-84
2023/10/19 08:44:17;;;;;;;21.07;18.77;;;;;;;10.79;95.26;92823.88;5041254;28;20229;-83
2023/10/19 08:46:44;;;;;;;18.30;16.60;;;;;;;11.04;94.47;92823.66;5045297;28;20222;-85
2023/10/19 08:49:16;;;;;;;17.60;15.93;;;;;;;11.46;89.96;92830.78;5040095;28;20252;-81
2023/10/19 08:51:46;;;;;;;17.83;16.33;;;;;;;11.21;90.73;92818.78;5043781;28;20183;-84
2023/10/19 08:54:13;;;;;;;18.93;17.00;;;;;;;11.42;91.18;92818.56;5041811;28;20218;-84
2023/10/19 08:56:41;;;;;;;17.50;15.60;;;;;;;11.65;89.87;92823.03;5047619;28;20210;-84
2023/10/19 08:59:11;;;;;;;26.27;23.40;;;;;;;11.81;89.39;92817.38;5047629;28;20273;-80
2023/10/19 09:01:37;;;;;;;24.83;17.53;;;;;;;11.74;90.66;92832.59;5049038;28;20175;-83
2023/10/19 09:04:05;;;;;;;18.37;16.60;;;;;;;12.06;88.79;92830.09;5045394;28;20227;-84
2023/10/19 09:06:41;;;;;;;19.47;17.20;;;;;;;12.50;85.10;92827.94;5036958;28;20171;-83
2023/10/19 09:09:09;;;;;;;17.13;15.73;;;;;;;12.66;84.76;92833.72;5049570;28;20264;-84
2023/10/19 09:11:35;;;;;;;18.33;16.17;;;;;;;12.69;85.07;92826.06;5050403;28;20204;-85
2023/10/19 09:14:00;;;;;;;17.47;15.73;;;;;;;12.64;82.97;92817.50;5043656;28;20229;-80
2023/10/19 09:16:26;;;;;;;18.27;16.67;;;;;;;12.57;84.67;92819.72;5050344;28;20235;-84
2023/10/19 09:18:52;;;;;;;17.77;16.03;;;;;;;12.73;83.56;92807.94;5047747;28;20260;-84
2023/10/19 09:21:25;;;;;;;18.53;16.77;;;;;;;12.57;83.54;92799.56;5048640;28;20175;-84
2023/10/19 09:23:52;;;;;;;15.43;14.23;;;;;;;12.67;81.63;92793.34;5046887;28;20219;-84
2023/10/19 09:26:18;;;;;;;15.07;13.80;;;;;;;12.36;80.24;92755.59;5049072;28;20199;-85
2023/10/19 09:28:50;;;;;;;15.60;14.10;;;;;;;12.61;82.03;92800.53;5044029;28;20223;-80
2023/10/19 09:31:16;;;;;;;14.70;13.50;;;;;;;12.61;82.86;92794.50;5041928;28;20187;-84
2023/10/19 09:33:46;;;;;;;14.73;13.60;;;;;;;12.64;84.75;92793.94;5047995;28;20215;-85
2023/10/19 09:36:13;;;;;;;15.03;13.67;;;;;;;12.79;82.17;92788.47;5048759;28;20994;-85
2023/10/19 09:38:49;;;;;;;14.20;13.10;;;;;;;13.00;80.95;92778.44;5047729;28;20219;-85
2023/10/19 09:41:19;;;;;;;14.93;13.83;;;;;;;12.88;82.33;92779.66;5047055;28;20210;-85
2023/10/19 09:43:46;;;;;;;14.03;12.90;;;;;;;12.90;81.21;92776.75;5048407;28;20258;-85
2023/10/19 09:46:38;;;;;;;15.10;13.23;;;;;;;13.09;79.58;92771.47;5048164;28;20285;-82
2023/10/19 09:49:04;;;;;;;14.37;13.27;;;;;;;13.22;79.86;92775.94;5028426;28;20296;-85
2023/10/19 09:51:30;;;;;;;13.63;12.63;;;;;;;13.23;78.69;92769.66;5046595;28;20179;-85
2023/10/19 09:54:11;;;;;;;13.67;12.63;;;;;;;13.32;78.27;92760.81;5048229;28;20232;-86
2023/10/19 09:56:41;;;;;;;13.67;12.53;;;;;;;13.49;78.36;92768.88;5047082;28;20198;-84
2023/10/19 09:59:20;;;;;;;14.17;12.97;;;;;;;13.73;77.98;92769.44;5040595;28;20226;-81
2023/10/19 10:02:05;;;;;;;14.13;12.83;;;;;;;13.82;76.04;92777.41;5048000;28;20214;-85
2023/10/19 10:04:32;;;;;;;17.37;15.57;;;;;;;13.50;78.02;92767.03;5043545;28;20250;-85
2023/10/19 10:07:04;;;;;;;15.53;14.17;;;;;;;13.66;76.69;92763.81;5047905;28;20273;-85
2023/10/19 10:09:29;;;;;;;14.60;13.37;;;;;;;13.55;76.53;92754.59;5048650;28;20218;-85
2023/10/19 10:11:56;;;;;;;16.00;14.53;;;;;;;13.49;77.68;92763.63;5052205;28;20193;-85
2023/10/19 10:14:32;;;;;;;15.70;14.23;;;;;;;13.18;79.78;92764.50;5046196;28;20229;-82
2023/10/19 10:17:02;;;;;;;16.67;14.97;;;;;;;13.02;80.62;92756.13;5050978;28;20201;-83
2023/10/19 10:19:27;;;;;;;16.80;15.07;;;;;;;12.97;82.40;92753.56;5050902;28;20236;-84
2023/10/19 10:22:20;;;;;;;21.00;17.43;;;;;;;13.47;79.58;92757.91;5051917;28;20217;-84
2023/10/19 10:24:46;;;;;;;16.03;14.43;;;;;;;12.97;79.48;92748.31;5041710;28;20203;-84
2023/10/19 10:27:14;;;;;;;17.50;15.80;;;;;;;13.01;80.07;92743.31;5038575;28;20194;-84
2023/10/19 10:29:58;;;;;;;16.57;15.17;;;;;;;13.11;80.19;92746.53;5048990;28;20917;-81
2023/10/19 10:32:50;;;;;;;19.80;17.70;;;;;;;13.27;78.55;92734.69;5033551;28;20246;-85
2023/10/19 10:35:40;;;;;;;15.40;14.00;;;;;;;13.72;77.09;92736.41;5063265;28;20218;-85
2023/10/19 10:38:17;;;;;;;16.40;14.60;;;;;;;13.71;76.66;92734.84;5066966;28;20314;-84
2023/10/19 10:40:50;;;;;;;14.27;13.00;;;;;;;13.63;77.59;92732.94;5052611;28;20177;-85
2023/10/19 10:43:17;;;;;;;16.27;14.77;;;;;;;13.56;77.58;92727.28;5079918;28;20243;-83
2023/10/19 10:45:43;;;;;;;16.77;15.20;;;;;;;13.80;76.20;92711.31;5092508;28;20216;-85
2023/10/19 10:48:12;;;;;;;40.63;27.57;;;;;;;13.71;76.27;92723.59;5069107;28;20217;-85
2023/10/19 10:50:38;;;;;;;15.53;13.97;;;;;;;13.84;75.87;92713.06;5068842;28;20182;-82
2023/10/19 10:53:05;;;;;;;16.37;14.87;;;;;;;14.01;75.23;92696.66;5083003;28;20243;-84
2023/10/19 10:55:30;;;;;;;16.27;14.03;;;;;;;14.00;76.15;92695.13;5073498;28;20260;-85
2023/10/19 10:57:57;;;;;;;18.73;15.57;;;;;;;13.83;77.09;92702.84;5084173;28;20191;-85
2023/10/19 11:00:25;;;;;;;60.50;28.30;;;;;;;13.82;76.17;92678.44;5089830;28;20189;-85
2023/10/19 11:03:04;;;;;;;36.00;19.13;;;;;;;13.70;78.02;92696.56;5076696;28;20181;-86
2023/10/19 11:05:33;;;;;;;15.00;13.50;;;;;;;13.61;77.48;92693.09;5045194;28;20190;-85
2023/10/19 11:08:08;;;;;;;14.17;12.00;;;;;;;14.05;76.84;92674.81;5043133;28;20297;-85
2023/10/19 11:10:34;;;;;;;13.00;12.00;;;;;;;14.51;75.05;92665.88;5047896;28;20269;-85
2023/10/19 11:13:07;;;;;;;20.80;17.13;;;;;;;14.67;75.07;92664.41;5043246;28;20225;-85
2023/10/19 11:15:39;;;;;;;14.07;12.87;;;;;;;15.00;73.63;92663.00;5038245;28;20232;-85
2023/10/19 11:18:08;;;;;;;13.80;12.70;;;;;;;14.83;74.33;92649.78;5050711;28;20221;-85
2023/10/19 11:20:34;;;;;;;20.87;18.70;;;;;;;14.81;73.34;92641.44;5051325;28;20197;-86
2023/10/19 11:23:02;;;;;;;15.77;14.27;;;;;;;14.33;75.94;92654.47;5046501;28;20237;-86
2023/10/19 11:25:31;;;;;;;14.53;13.20;;;;;;;14.26;76.51;92657.53;5043311;28;20178;-85
2023/10/19 11:27:59;;;;;;;16.10;14.80;;;;;;;14.73;75.46;92653.47;5051304;28;20194;-83
2023/10/19 11:30:26;;;;;;;15.07;13.77;;;;;;;14.82;75.76;92643.00;5049061;28;20166;-84
2023/10/19 11:33:00;;;;;;;14.20;13.10;;;;;;;14.81;76.72;92625.66;5044514;28;20186;-84
2023/10/19 11:35:28;;;;;;;14.33;13.00;;;;;;;14.83;74.83;92634.03;5079513;28;20224;-83
2023/10/19 11:37:56;;;;;;;14.03;12.87;;;;;;;14.76;74.67;92633.66;5041353;28;20191;-84
2023/10/19 11:40:23;;;;;;;13.93;12.83;;;;;;;15.20;75.00;92638.78;5035967;28;20194;-85
2023/10/19 11:42:49;;;;;;;15.43;13.93;;;;;;;15.17;73.91;92634.16;5046016;28;20205;-85
2023/10/19 11:45:16;;;;;;;13.97;12.83;;;;;;;15.04;73.97;92622.66;5045123;28;20837;-86